ADDS TAF Data INFO
IDs: Format: Raw Decoded Include METARs

Data at: 1309 UTC 21 May 2018

KGUP 211253Z AUTO 07005KT 10SM CLR 06/M14 A3010 RMK AO2 SLP071 T00611144

KGUP 211130Z 2112/2212 VRB04KT P6SM BKN250
  FM211400 17012KT P6SM BKN200
  FM211800 19018G28KT P6SM SCT080 BKN200
  FM220200 18007KT P6SM BKN200
  FM220500 VRB03KT P6SM SKC